Terminal Aerodrome Forecast
Issued by NWS

Home | Current Version | Previous Version | Graphics & Text | Print | Product List | Glossary On
Versions: 1 2 3 4 5 6 7 8 9 10 11 12 13 14
000
FTUS41 KCLE 301456 AAA
TAFFDY
TAF AMD
KFDY 301456Z 3015/3112 27006KT P6SM BKN250
     FM301600 29008KT P6SM SCT050
     FM302300 31004KT P6SM SCT250=

USA.gov is the U.S. government's official web portal to all federal, state and local government web resources and services.